Time;durP1;ratioP1;P1;durP2;ratioP2;P2;SDS_P1;SDS_P2;PMS_P1;PMS_P2;Temp;Humidity;BMP_temperature;BMP_pressure;BME280_temperature;BME280_humidity;BME280_pressure;Samples;Min_cycle;Max_cycle;Signal;HPM_P1;HPM_P2
2023/02/05 10:26:02;;;;;;;;;;;;;;;4.25;63.45;99837.53;5394702;23;19926;-65
2023/02/05 10:28:34;;;;;;;;;;;;;;;4.12;62.46;99825.63;4913109;29;20339;-65
2023/02/05 10:31:11;;;;;;;;;;;;;;;4.01;62.38;99813.69;4913642;29;19919;-65
2023/02/05 10:33:36;;;;;;;;;;;;;;;3.98;62.31;99815.47;4912820;29;19922;-64
2023/02/05 10:36:02;;;;;;;;;;;;;;;3.94;62.90;99817.25;4895228;29;19919;-64
2023/02/05 10:38:28;;;;;;;;;;;;;;;3.89;62.75;99803.50;4890617;29;20387;-65
2023/02/05 10:40:54;;;;;;;;;;;;;;;3.87;63.66;99805.25;4893100;29;20423;-65
2023/02/05 10:43:23;;;;;;;;;;;;;;;3.90;63.91;99805.22;4895959;29;19925;-65
2023/02/05 10:45:49;;;;;;;;;;;;;;;3.90;63.87;99797.44;4894881;29;19930;-65
2023/02/05 10:48:14;;;;;;;;;;;;;;;3.89;62.74;99802.63;4896295;29;20358;-64
2023/02/05 10:50:50;;;;;;;;;;;;;;;4.27;80.26;99794.22;4898417;29;20348;-65
2023/02/05 10:53:16;;;;;;;;;;;;;;;4.23;63.23;99783.03;4886886;29;19925;-65
2023/02/05 10:55:42;;;;;;;;;;;;;;;4.27;62.76;99789.03;4895687;29;19926;-66
2023/02/05 10:58:18;;;;;;;;;;;;;;;4.28;61.54;99780.34;4892645;29;20292;-65
2023/02/05 11:00:44;;;;;;;;;;;;;;;4.26;62.03;99776.91;4895480;29;19987;-65
2023/02/05 11:03:09;;;;;;;;;;;;;;;4.27;62.63;99773.44;4897273;29;20391;-65
2023/02/05 11:05:37;;;;;;;;;;;;;;;4.28;63.02;99772.56;4894037;29;20392;-65
2023/02/05 11:08:03;;;;;;;;;;;;;;;4.29;62.36;99759.53;4890347;29;19926;-65
2023/02/05 11:10:29;;;;;;;;;;;;;;;4.34;63.22;99754.25;4893465;29;19945;-65
2023/02/05 11:13:04;;;;;;;;;;;;;;;4.41;63.42;99749.81;4896484;29;20399;-65
2023/02/05 11:15:30;;;;;;;;;;;;;;;4.44;62.01;99753.19;4896470;29;19998;-65
2023/02/05 11:17:57;;;;;;;;;;;;;;;4.44;60.49;99761.00;4892368;29;20459;-65
2023/02/05 11:20:29;;;;;;;;;;;;;;;4.51;60.41;99756.53;4895526;29;19919;-65
2023/02/05 11:23:24;;;;;;;;;;;;;;;4.52;59.88;99764.28;4896190;29;19919;-65
2023/02/05 11:25:56;;;;;;;;;;;;;;;4.60;60.16;99758.94;4899651;29;19971;-65
2023/02/05 11:28:23;;;;;;;;;;;;;;;4.69;60.50;99755.31;4894540;29;19923;-65
2023/02/05 11:30:48;;;;;;;;;;;;;;;4.80;60.21;99763.75;4897126;29;20003;-65
2023/02/05 11:33:20;;;;;;;;;;;;;;;4.88;60.66;99756.63;4897213;29;19963;-65
2023/02/05 11:35:51;;;;;;;;;;;;;;;4.90;60.34;99762.69;4896454;29;20291;-66
2023/02/05 11:38:29;;;;;;;;;;;;;;;4.86;59.18;99765.38;4893803;29;20444;-65
2023/02/05 11:40:58;;;;;;;;;;;;;;;4.82;59.79;99767.19;4895401;29;20372;-65
2023/02/05 11:43:26;;;;;;;;;;;;;;;4.78;60.07;99765.50;4896984;29;19938;-65
2023/02/05 11:45:51;;;;;;;;;;;;;;;4.76;60.28;99768.16;4896405;29;20015;-65
2023/02/05 11:48:21;;;;;;;;;;;;;;;4.75;61.02;99763.00;4896956;29;20388;-65
2023/02/05 11:50:46;;;;;;;;;;;;;;;4.73;60.93;99764.75;4892776;29;19935;-65
2023/02/05 11:53:13;;;;;;;;;;;;;;;4.71;61.53;99758.72;4894770;29;19924;-65
2023/02/05 11:55:38;;;;;;;;;;;;;;;4.69;61.67;99755.31;4893689;29;19939;-65
2023/02/05 11:58:05;;;;;;;;;;;;;;;4.63;61.58;99755.44;4896726;29;19916;-65
2023/02/05 12:00:30;;;;;;;;;;;;;;;4.62;62.16;99758.94;4895920;29;20273;-65
2023/02/05 12:03:00;;;;;;;;;;;;;;;4.57;61.21;99755.53;4893036;29;19924;-65
2023/02/05 12:05:27;;;;;;;;;;;;;;;4.58;61.42;99749.50;4894539;29;19984;-65
2023/02/05 12:07:55;;;;;;;;;;;;;;;4.58;61.54;99752.09;4893571;29;19971;-65
2023/02/05 12:10:27;;;;;;;;;;;;;;;4.58;61.92;99746.88;4890738;29;20422;-66
2023/02/05 12:12:56;;;;;;;;;;;;;;;4.55;62.82;99742.59;4898188;29;19922;-65
2023/02/05 12:15:25;;;;;;;;;;;;;;;4.57;61.85;99739.97;4893605;29;19930;-65
2023/02/05 12:18:03;;;;;;;;;;;;;;;4.60;61.98;99734.69;4896458;29;19919;-65
2023/02/05 12:20:29;;;;;;;;;;;;;;;4.65;61.49;99732.88;4893992;29;19926;-65
2023/02/05 12:23:04;;;;;;;;;;;;;;;4.73;61.31;99721.44;4896723;29;19915;-65
2023/02/05 12:25:32;;;;;;;;;;;;;;;4.80;61.70;99711.75;4894675;29;19966;-65
2023/02/05 12:28:07;;;;;;;;;;;;;;;4.86;61.08;99698.63;4894863;29;19976;-65
2023/02/05 12:30:35;;;;;;;;;;;;;;;4.96;60.79;99704.50;4895769;29;19919;-65
2023/02/05 12:33:23;;;;;;;;;;;;;;;5.02;60.63;99701.75;4897036;29;19924;-65
2023/02/05 12:35:52;;;;;;;;;;;;;;;5.12;60.10;99686.78;4894572;29;19927;-65
2023/02/05 12:38:18;;;;;;;;;;;;;;;5.20;60.39;99692.69;4893762;29;19929;-65
2023/02/05 12:41:10;;;;;;;;;;;;;;;5.35;59.92;99686.25;4899731;29;20422;-66
2023/02/05 12:43:38;;;;;;;;;;;;;;;5.57;59.27;99673.56;4879868;29;20376;-64
2023/02/05 12:46:07;;;;;;;;;;;;;;;5.74;58.60;99671.41;4894616;29;19975;-63
2023/02/05 12:48:41;;;;;;;;;;;;;;;5.93;58.33;99666.63;4890480;29;19923;-65
2023/02/05 12:51:09;;;;;;;;;;;;;;;6.08;57.50;99666.19;4896345;29;20380;-63
2023/02/05 12:53:34;;;;;;;;;;;;;;;6.21;57.59;99666.72;4891836;29;19923;-63
2023/02/05 12:56:05;;;;;;;;;;;;;;;6.31;56.91;99662.97;4896498;29;19920;-64
2023/02/05 12:58:33;;;;;;;;;;;;;;;6.38;57.07;99663.66;4895763;29;19915;-64
2023/02/05 13:00:59;;;;;;;;;;;;;;;6.41;56.24;99659.19;4892169;29;19930;-66
2023/02/05 13:03:26;;;;;;;;;;;;;;;6.40;56.34;99665.31;4893975;29;20039;-66
2023/02/05 13:05:52;;;;;;;;;;;;;;;6.35;55.67;99661.97;4892853;29;19966;-67
2023/02/05 13:08:36;;;;;;;;;;;;;;;6.30;55.98;99661.25;4890694;29;19967;-66
2023/02/05 13:11:24;;;;;;;;;;;;;;;6.25;56.94;99663.13;4894959;29;19979;-66
2023/02/05 13:13:51;;;;;;;;;;;;;;;6.22;57.31;99667.56;4897429;29;20032;-66
2023/02/05 13:16:16;;;;;;;;;;;;;;;6.14;57.53;99670.38;4895638;29;20408;-66
2023/02/05 13:18:42;;;;;;;;;;;;;;;6.02;58.43;99673.31;4908170;29;19927;-66
2023/02/05 13:29:26;;;;;;;;;;;;;;;5.52;59.12;99670.25;4895712;29;19963;-66
2023/02/05 13:31:52;;;;;;;;;;;;;;;5.41;60.10;99663.56;4889733;29;19989;-66
2023/02/05 13:34:18;;;;;;;;;;;;;;;5.35;60.32;99668.91;4894353;29;19926;-66
2023/02/05 13:37:01;;;;;;;;;;;;;;;5.27;60.79;99665.63;4887655;29;19923;-66
2023/02/05 13:39:29;;;;;;;;;;;;;;;5.17;61.47;99674.53;4895854;29;20197;-66
2023/02/05 13:42:13;;;;;;;;;;;;;;;5.08;61.05;99672.16;4894865;29;19920;-66
2023/02/05 13:44:45;;;;;;;;;;;;;;;5.00;60.69;99678.38;4894297;29;20026;-66
2023/02/05 13:47:29;;;;;;;;;;;;;;;4.92;60.57;99685.50;4893115;29;20002;-66
2023/02/05 13:50:07;;;;;;;;;;;;;;;4.85;60.68;99696.94;4896264;29;20375;-66
2023/02/05 13:52:35;;;;;;;;;;;;;;;4.80;61.75;99690.09;4894345;29;19924;-66
2023/02/05 13:55:03;;;;;;;;;;;;;;;4.76;62.20;99686.72;4895558;29;19922;-66
2023/02/05 13:57:47;;;;;;;;;;;;;;;4.71;61.62;99680.75;4894217;29;20419;-66
2023/02/05 14:00:13;;;;;;;;;;;;;;;4.65;62.33;99681.75;4896726;29;19926;-66
2023/02/05 14:02:39;;;;;;;;;;;;;;;4.63;63.43;99678.31;4891582;29;20013;-66
2023/02/05 14:05:04;;;;;;;;;;;;;;;4.59;63.11;99676.69;4894901;29;20388;-66
2023/02/05 14:07:34;;;;;;;;;;;;;;;4.56;63.31;99676.75;4892778;29;19926;-66
2023/02/05 14:09:59;;;;;;;;;;;;;;;4.51;63.95;99673.41;4895225;29;20003;-66
2023/02/05 14:12:31;;;;;;;;;;;;;;;4.48;64.59;99676.06;4895236;29;19975;-66
2023/02/05 14:15:23;;;;;;;;;;;;;;;4.44;64.31;99672.66;4887090;29;19915;-66
2023/02/05 14:17:48;;;;;;;;;;;;;;;4.41;65.18;99672.72;4892171;29;19919;-66
2023/02/05 14:20:32;;;;;;;;;;;;;;;4.36;64.21;99666.75;4896074;29;19930;-66
2023/02/05 14:22:59;;;;;;;;;;;;;;;4.30;64.43;99669.47;4898839;29;19923;-66
2023/02/05 14:25:34;;;;;;;;;;;;;;;4.26;64.13;99667.81;4881920;29;20388;-66
2023/02/05 14:27:59;;;;;;;;;;;;;;;4.23;64.41;99670.47;4897738;29;19919;-66
2023/02/05 14:30:36;;;;;;;;;;;;;;;4.20;64.80;99667.97;4899417;29;19920;-66
2023/02/05 14:33:20;;;;;;;;;;;;;;;4.16;64.75;99679.25;4898640;29;19920;-66
2023/02/05 14:35:47;;;;;;;;;;;;;;;4.11;64.83;99679.38;4898906;29;19915;-66
2023/02/05 14:38:19;;;;;;;;;;;;;;;4.07;65.42;99687.25;4897221;29;19942;-66
2023/02/05 14:40:45;;;;;;;;;;;;;;;4.01;66.11;99688.22;4898556;29;19923;-66
2023/02/05 14:43:14;;;;;;;;;;;;;;;3.98;65.77;99678.72;4897242;29;19920;-68
2023/02/05 14:45:46;;;;;;;;;;;;;;;3.96;65.03;99688.31;4899452;29;19951;-66
2023/02/05 14:48:24;;;;;;;;;;;;;;;3.92;66.00;99684.06;4895894;29;20442;-66
2023/02/05 14:50:59;;;;;;;;;;;;;;;3.92;65.96;99696.16;4902875;29;19924;-66
2023/02/05 14:53:25;;;;;;;;;;;;;;;3.90;65.74;99695.34;4897727;29;19962;-66
2023/02/05 14:55:55;;;;;;;;;;;;;;;3.85;65.58;99695.41;4881868;29;19947;-65
2023/02/05 14:58:22;;;;;;;;;;;;;;;3.82;66.09;99698.06;4898444;29;19915;-66
2023/02/05 15:00:47;;;;;;;;;;;;;;;3.80;66.44;99705.88;4900771;29;19966;-66
2023/02/05 15:03:16;;;;;;;;;;;;;;;3.75;66.18;99697.31;4898543;29;19920;-66
2023/02/05 15:05:47;;;;;;;;;;;;;;;3.73;66.74;99706.00;4899120;29;19924;-66
2023/02/05 15:08:14;;;;;;;;;;;;;;;3.68;65.80;99711.28;4897988;29;20371;-66
2023/02/05 15:10:44;;;;;;;;;;;;;;;3.65;66.25;99710.44;4893482;29;19923;-66
2023/02/05 15:13:14;;;;;;;;;;;;;;;3.59;66.43;99710.56;4898639;29;19919;-65
2023/02/05 15:15:39;;;;;;;;;;;;;;;3.59;67.39;99726.16;4896158;29;19927;-66
2023/02/05 15:18:05;;;;;;;;;;;;;;;3.52;66.68;99730.56;4899012;29;19915;-66
2023/02/05 15:20:32;;;;;;;;;;;;;;;3.50;67.25;99729.72;4894593;29;19927;-66
2023/02/05 15:23:00;;;;;;;;;;;;;;;3.46;67.38;99736.69;4896825;29;19916;-65
2023/02/05 15:25:34;;;;;;;;;;;;;;;3.40;67.87;99731.59;4896596;29;19923;-66
2023/02/05 15:28:07;;;;;;;;;;;;;;;3.41;68.11;99733.34;4883005;29;20161;-65
2023/02/05 15:30:38;;;;;;;;;;;;;;;3.39;68.34;99731.63;4892928;29;20284;-65
2023/02/05 15:33:04;;;;;;;;;;;;;;;3.36;67.81;99732.53;4896517;29;19919;-65
2023/02/05 15:35:29;;;;;;;;;;;;;;;3.35;68.42;99728.22;4896716;29;20373;-65
2023/02/05 15:37:55;;;;;;;;;;;;;;;3.33;68.79;99740.34;4897480;29;19969;-65
2023/02/05 15:40:21;;;;;;;;;;;;;;;3.31;69.00;99744.72;4896679;29;19920;-65
2023/02/05 15:42:48;;;;;;;;;;;;;;;3.30;69.42;99755.97;4894298;29;19920;-65
2023/02/05 15:45:17;;;;;;;;;;;;;;;3.29;69.73;99749.06;4898006;29;20344;-65
2023/02/05 15:47:42;;;;;;;;;;;;;;;3.27;70.98;99745.66;4897564;29;20006;-66
2023/02/05 15:50:08;;;;;;;;;;;;;;;3.29;70.54;99749.06;4898440;29;20010;-65
2023/02/05 15:52:33;;;;;;;;;;;;;;;3.28;70.60;99737.84;4893598;29;19920;-65
2023/02/05 15:54:59;;;;;;;;;;;;;;;3.28;69.97;99743.03;4896658;29;19930;-65
2023/02/05 15:57:25;;;;;;;;;;;;;;;3.26;69.48;99746.50;4896264;29;19923;-65
2023/02/05 15:59:51;;;;;;;;;;;;;;;3.25;70.74;99737.03;4909939;29;19916;-65
2023/02/05 16:02:17;;;;;;;;;;;;;;;3.24;69.74;99741.38;4899919;29;20056;-65
2023/02/05 16:04:42;;;;;;;;;;;;;;;3.22;70.04;99744.84;4907678;29;19966;-66
2023/02/05 16:07:18;;;;;;;;;;;;;;;3.20;70.21;99749.19;4897216;29;19968;-65
2023/02/05 16:09:44;;;;;;;;;;;;;;;3.18;69.54;99753.56;4898682;29;19916;-65
2023/02/05 16:12:10;;;;;;;;;;;;;;;3.15;69.36;99757.03;4898064;29;19919;-66
2023/02/05 16:14:35;;;;;;;;;;;;;;;3.14;69.08;99764.84;4896879;29;19942;-65
2023/02/05 16:17:06;;;;;;;;;;;;;;;3.09;69.70;99755.38;4897080;29;20033;-66
2023/02/05 16:19:32;;;;;;;;;;;;;;;3.09;70.12;99763.16;4893386;29;19915;-65
2023/02/05 16:21:59;;;;;;;;;;;;;;;3.05;69.76;99769.25;4896649;29;19919;-66
2023/02/05 16:24:26;;;;;;;;;;;;;;;3.05;69.90;99766.66;4909733;29;19923;-65
2023/02/05 16:26:57;;;;;;;;;;;;;;;3.03;69.62;99772.78;4910424;29;20210;-65
2023/02/05 16:29:24;;;;;;;;;;;;;;;3.01;70.09;99775.38;4897937;29;19920;-65
2023/02/05 16:31:54;;;;;;;;;;;;;;;2.98;69.74;99779.75;4899572;29;20015;-65
2023/02/05 16:34:21;;;;;;;;;;;;;;;2.96;69.50;99772.00;4893735;29;19967;-65
2023/02/05 16:36:47;;;;;;;;;;;;;;;2.95;69.44;99764.22;4893735;29;20372;-65
2023/02/05 16:39:17;;;;;;;;;;;;;;;2.95;69.42;99764.22;4893830;29;19948;-65
2023/02/05 16:41:43;;;;;;;;;;;;;;;2.94;70.24;99772.88;4895362;29;20303;-65
2023/02/05 16:44:24;;;;;;;;;;;;;;;2.89;69.67;99770.38;4896511;29;20402;-65
2023/02/05 16:46:56;;;;;;;;;;;;;;;2.87;69.74;99764.31;4892979;29;19930;-67
2023/02/05 16:49:21;;;;;;;;;;;;;;;2.84;70.09;99773.00;4893047;29;19935;-65
2023/02/05 16:51:47;;;;;;;;;;;;;;;2.81;69.68;99774.75;4895165;29;19923;-65
2023/02/05 16:54:12;;;;;;;;;;;;;;;2.75;69.12;99777.41;4896470;29;19920;-65
2023/02/05 16:56:57;;;;;;;;;;;;;;;2.71;69.10;99783.50;4891664;29;19930;-65
2023/02/05 16:59:23;;;;;;;;;;;;;;;2.68;69.80;99786.13;4893424;29;19923;-65
2023/02/05 17:01:49;;;;;;;;;;;;;;;2.65;70.03;99802.59;4895069;29;19923;-66
2023/02/05 17:04:46;;;;;;;;;;;;;;;2.64;70.76;99807.78;4895526;29;19920;-65
2023/02/05 17:07:15;;;;;;;;;;;;;;;2.62;70.70;99818.19;4873650;29;20463;-65
2023/02/05 17:09:41;;;;;;;;;;;;;;;2.61;70.83;99814.72;4869178;29;19928;-65
2023/02/05 17:12:18;;;;;;;;;;;;;;;2.61;70.38;99827.69;4859428;29;19915;-65
2023/02/05 17:14:51;;;;;;;;;;;;;;;2.61;70.89;99830.28;4875705;29;20412;-65
2023/02/05 17:17:16;;;;;;;;;;;;;;;2.63;71.23;99834.56;4876300;29;19915;-65
2023/02/05 17:19:42;;;;;;;;;;;;;;;2.63;71.36;99839.75;4854792;29;20087;-65
2023/02/05 17:22:13;;;;;;;;;;;;;;;2.65;72.35;99845.75;4853513;29;19920;-65
2023/02/05 17:24:41;;;;;;;;;;;;;;;2.67;71.94;99847.47;4884723;29;20328;-65
2023/02/05 17:27:08;;;;;;;;;;;;;;;2.65;71.60;99838.88;4875916;29;19920;-65
2023/02/05 17:29:33;;;;;;;;;;;;;;;2.66;71.80;99824.19;4860466;29;20340;-65
2023/02/05 17:31:58;;;;;;;;;;;;;;;2.63;70.01;99817.28;4858220;29;20645;-65
2023/02/05 17:34:23;;;;;;;;;;;;;;;2.59;70.82;99819.06;4859340;29;20423;-65
2023/02/05 17:36:50;;;;;;;;;;;;;;;2.58;71.07;99817.34;4876257;29;20415;-65
2023/02/05 17:39:15;;;;;;;;;;;;;;;2.53;70.95;99832.06;4875381;29;19920;-65
2023/02/05 17:44:24;;;;;;;;;;;;;;;2.44;71.55;99833.88;4895353;29;19975;-65
2023/02/05 17:46:52;;;;;;;;;;;;;;;2.41;71.83;99827.03;4896281;29;20337;-65
2023/02/05 17:49:18;;;;;;;;;;;;;;;2.40;72.28;99824.44;4894449;29;20002;-65
2023/02/05 17:51:43;;;;;;;;;;;;;;;2.37;72.12;99830.50;4895259;29;20003;-65
2023/02/05 17:54:15;;;;;;;;;;;;;;;2.33;72.24;99831.41;4894432;29;20051;-66
2023/02/05 17:56:41;;;;;;;;;;;;;;;2.32;73.02;99827.97;4899080;29;19946;-66
2023/02/05 17:59:16;;;;;;;;;;;;;;;2.32;72.41;99830.53;4894429;29;19961;-66
2023/02/05 18:01:41;;;;;;;;;;;;;;;2.32;72.21;99835.72;4897297;29;19919;-65
2023/02/05 18:04:06;;;;;;;;;;;;;;;2.33;72.44;99837.44;4900200;29;19922;-66
2023/02/05 18:06:31;;;;;;;;;;;;;;;2.32;72.36;99845.22;4898075;29;19927;-67
2023/02/05 18:08:56;;;;;;;;;;;;;;;2.94;83.07;99843.72;4911911;29;19920;-66
2023/02/05 18:11:22;;;;;;;;;;;;;;;2.88;78.44;99838.59;4899386;29;20308;-66
2023/02/05 18:13:47;;;;;;;;;;;;;;;2.78;74.09;99829.22;4900123;29;20288;-66
2023/02/05 18:16:12;;;;;;;;;;;;;;;2.75;73.11;99839.59;4898426;29;19927;-66
2023/02/05 18:18:38;;;;;;;;;;;;;;;2.70;73.08;99842.25;4897024;29;19978;-66
2023/02/05 18:21:03;;;;;;;;;;;;;;;2.64;72.91;99844.91;4900045;29;19920;-66
2023/02/05 18:23:28;;;;;;;;;;;;;;;2.57;72.25;99838.06;4898341;29;19998;-66
2023/02/05 18:25:54;;;;;;;;;;;;;;;2.52;72.58;99837.28;4899068;29;19927;-65
2023/02/05 18:28:19;;;;;;;;;;;;;;;2.47;72.10;99842.47;4897988;29;19920;-66
2023/02/05 18:30:44;;;;;;;;;;;;;;;2.40;73.36;99846.00;4899175;29;19926;-66
2023/02/05 18:33:10;;;;;;;;;;;;;;;2.40;74.03;99846.00;4895410;29;19915;-65
2023/02/05 18:35:36;;;;;;;;;;;;;;;2.40;73.80;99853.78;4900864;29;19926;-66
2023/02/05 18:38:01;;;;;;;;;;;;;;;2.41;73.98;99870.16;4892557;29;19980;-67
2023/02/05 18:40:26;;;;;;;;;;;;;;;2.42;75.22;99867.56;4898303;29;20396;-67
2023/02/05 18:42:53;;;;;;;;;;;;;;;2.43;74.97;99876.19;4896798;29;20443;-66
2023/02/05 18:45:18;;;;;;;;;;;;;;;2.43;75.22;99879.66;4898677;29;19958;-66
2023/02/05 18:47:43;;;;;;;;;;;;;;;2.44;75.41;99871.00;4891231;29;19991;-67
2023/02/05 18:50:09;;;;;;;;;;;;;;;2.45;75.11;99882.25;4898210;29;19920;-66
2023/02/05 18:52:34;;;;;;;;;;;;;;;2.48;75.24;99883.06;4898641;29;19955;-67
2023/02/05 18:54:59;;;;;;;;;;;;;;;2.48;75.06;99880.47;4898548;29;20018;-66
2023/02/05 18:57:24;;;;;;;;;;;;;;;2.50;75.19;99885.63;4898903;29;19923;-66
2023/02/05 18:59:50;;;;;;;;;;;;;;;2.51;74.75;99883.03;4899617;29;20307;-66
2023/02/05 19:02:15;;;;;;;;;;;;;;;2.54;75.29;99887.31;4898664;29;20318;-66
2023/02/05 19:04:40;;;;;;;;;;;;;;;2.53;75.54;99886.47;4895926;29;20324;-66
2023/02/05 19:07:05;;;;;;;;;;;;;;;2.54;75.55;99888.16;4898585;29;20303;-66
2023/02/05 19:09:31;;;;;;;;;;;;;;;2.55;75.23;99892.50;4895388;29;19916;-67
2023/02/05 19:11:56;;;;;;;;;;;;;;;2.55;74.72;99894.22;4896888;29;19920;-66
2023/02/05 19:14:21;;;;;;;;;;;;;;;2.54;75.33;99895.94;4897180;29;20031;-66
2023/02/05 19:16:47;;;;;;;;;;;;;;;2.53;76.21;99907.19;4889833;29;19919;-67
2023/02/05 19:19:13;;;;;;;;;;;;;;;2.54;76.19;99908.03;4897186;29;19929;-68
2023/02/05 19:21:38;;;;;;;;;;;;;;;2.54;75.86;99911.47;4895320;29;20306;-66
2023/02/05 19:24:05;;;;;;;;;;;;;;;2.53;75.89;99912.38;4895502;29;19934;-66
2023/02/05 19:26:31;;;;;;;;;;;;;;;2.52;75.33;99913.25;4896646;29;20396;-65
2023/02/05 19:28:57;;;;;;;;;;;;;;;2.52;75.48;99910.66;4897668;29;19923;-67
2023/02/05 19:31:23;;;;;;;;;;;;;;;2.52;75.75;99907.22;4892978;29;19919;-67
2023/02/05 19:33:48;;;;;;;;;;;;;;;2.50;75.81;99912.38;4896988;29;20407;-66
2023/02/05 19:36:13;;;;;;;;;;;;;;;2.48;75.49;99908.09;4896414;29;20401;-66
2023/02/05 19:38:39;;;;;;;;;;;;;;;2.47;75.67;99919.31;4898644;29;19915;-67
2023/02/05 19:41:07;;;;;;;;;;;;;;;2.47;75.74;99927.09;4897773;29;19923;-66
2023/02/05 19:43:32;;;;;;;;;;;;;;;2.46;75.57;99931.41;4897252;29;20325;-67
2023/02/05 19:46:01;;;;;;;;;;;;;;;2.45;75.48;99949.59;4897738;29;19934;-66
2023/02/05 19:48:27;;;;;;;;;;;;;;;2.45;75.79;99945.25;4901790;29;19919;-67
2023/02/05 19:50:54;;;;;;;;;;;;;;;2.43;75.87;99940.94;4895721;29;20296;-66
2023/02/05 19:53:21;;;;;;;;;;;;;;;2.42;75.87;99939.25;4898402;29;20359;-67
2023/02/05 19:55:46;;;;;;;;;;;;;;;2.41;75.50;99937.50;4897866;29;20395;-67
2023/02/05 19:58:11;;;;;;;;;;;;;;;2.40;76.30;99940.97;4897997;29;19969;-67
2023/02/05 20:00:37;;;;;;;;;;;;;;;2.38;76.13;99933.22;4892975;29;19954;-66
2023/02/05 20:03:02;;;;;;;;;;;;;;;2.37;76.46;99931.50;4898243;29;19973;-67
2023/02/05 20:05:27;;;;;;;;;;;;;;;2.36;76.15;99927.19;4896603;29;20341;-67
2023/02/05 20:07:52;;;;;;;;;;;;;;;2.34;75.66;99926.31;4898245;29;20340;-68
2023/02/05 20:10:18;;;;;;;;;;;;;;;2.31;76.07;99926.38;4897448;29;20336;-67
2023/02/05 20:12:43;;;;;;;;;;;;;;;2.28;75.70;99926.41;4894632;29;20010;-67
2023/02/05 20:15:08;;;;;;;;;;;;;;;2.26;75.67;99934.16;4896668;29;20336;-68
2023/02/05 20:17:33;;;;;;;;;;;;;;;2.26;76.61;99952.28;4895596;29;20340;-67
2023/02/05 20:19:59;;;;;;;;;;;;;;;2.24;76.23;99948.00;4895147;29;19927;-68
2023/02/05 20:22:24;;;;;;;;;;;;;;;2.22;76.36;99952.31;4896847;29;20010;-66
2023/02/05 20:24:49;;;;;;;;;;;;;;;2.20;76.82;99951.47;4895124;29;19966;-67
2023/02/05 20:27:15;;;;;;;;;;;;;;;2.19;77.15;99957.53;4892345;29;19920;-67
2023/02/05 20:32:24;;;;;;;;;;;;;;;2.12;76.58;99965.31;4889886;29;19934;-67
2023/02/05 20:34:49;;;;;;;;;;;;;;;2.10;76.79;99959.31;4892900;29;19919;-67
2023/02/05 20:37:15;;;;;;;;;;;;;;;2.08;76.88;99950.69;4894134;29;20154;-67
2023/02/05 20:39:42;;;;;;;;;;;;;;;2.07;76.85;99954.16;4897311;29;19916;-67
